sensor_id;sensor_type;location;lat;lon;timestamp;pressure;altitude;pressure_sealevel;temperature
28305;BMP280;15569;42.652;23.040;2023-11-19T00:01:26;92873.06;;;5.08
28305;BMP280;15569;42.652;23.040;2023-11-19T00:03:51;92873.50;;;5.14
28305;BMP280;15569;42.652;23.040;2023-11-19T00:06:18;92878.47;;;5.08
28305;BMP280;15569;42.652;23.040;2023-11-19T00:08:44;92874.22;;;4.95
28305;BMP280;15569;42.652;23.040;2023-11-19T00:11:09;92874.78;;;4.94
28305;BMP280;15569;42.652;23.040;2023-11-19T00:13:34;92889.53;;;5.02
28305;BMP280;15569;42.652;23.040;2023-11-19T00:16:00;92885.41;;;4.82
28305;BMP280;15569;42.652;23.040;2023-11-19T00:18:25;92880.75;;;5.11
28305;BMP280;15569;42.652;23.040;2023-11-19T00:20:51;92889.97;;;5.18
28305;BMP280;15569;42.652;23.040;2023-11-19T00:23:16;92881.16;;;5.08
28305;BMP280;15569;42.652;23.040;2023-11-19T00:25:42;92897.63;;;5.21
28305;BMP280;15569;42.652;23.040;2023-11-19T00:28:07;92893.81;;;5.34
28305;BMP280;15569;42.652;23.040;2023-11-19T00:30:33;92900.03;;;5.36
28305;BMP280;15569;42.652;23.040;2023-11-19T00:32:58;92896.34;;;5.32
28305;BMP280;15569;42.652;23.040;2023-11-19T00:35:23;92895.34;;;5.08
28305;BMP280;15569;42.652;23.040;2023-11-19T00:37:49;92900.00;;;5.08
28305;BMP280;15569;42.652;23.040;2023-11-19T00:40:15;92921.31;;;5.42
28305;BMP280;15569;42.652;23.040;2023-11-19T00:42:46;92902.28;;;5.11
28305;BMP280;15569;42.652;23.040;2023-11-19T00:45:12;92899.75;;;5.13
28305;BMP280;15569;42.652;23.040;2023-11-19T00:47:38;92908.13;;;4.98
28305;BMP280;15569;42.652;23.040;2023-11-19T00:50:04;92908.41;;;5.31
28305;BMP280;15569;42.652;23.040;2023-11-19T00:52:29;92902.69;;;5.08
28305;BMP280;15569;42.652;23.040;2023-11-19T00:54:54;92907.44;;;4.52
28305;BMP280;15569;42.652;23.040;2023-11-19T00:57:20;92915.84;;;4.65
28305;BMP280;15569;42.652;23.040;2023-11-19T00:59:45;92916.72;;;4.87
28305;BMP280;15569;42.652;23.040;2023-11-19T01:02:12;92909.28;;;4.49
28305;BMP280;15569;42.652;23.040;2023-11-19T01:04:39;92924.13;;;4.14
28305;BMP280;15569;42.652;23.040;2023-11-19T01:07:05;92923.72;;;4.44
28305;BMP280;15569;42.652;23.040;2023-11-19T01:09:32;92919.16;;;4.37
28305;BMP280;15569;42.652;23.040;2023-11-19T01:11:58;92917.00;;;3.99
28305;BMP280;15569;42.652;23.040;2023-11-19T01:14:25;92924.44;;;4.08
28305;BMP280;15569;42.652;23.040;2023-11-19T01:16:51;92926.88;;;4.50
28305;BMP280;15569;42.652;23.040;2023-11-19T01:19:16;92925.34;;;4.66
28305;BMP280;15569;42.652;23.040;2023-11-19T01:21:41;92920.41;;;4.82
28305;BMP280;15569;42.652;23.040;2023-11-19T01:24:07;92931.72;;;4.81
28305;BMP280;15569;42.652;23.040;2023-11-19T01:26:34;92913.19;;;4.85
28305;BMP280;15569;42.652;23.040;2023-11-19T01:29:00;92922.59;;;4.47
28305;BMP280;15569;42.652;23.040;2023-11-19T01:31:26;92928.44;;;4.72
28305;BMP280;15569;42.652;23.040;2023-11-19T01:33:51;92932.00;;;4.65
28305;BMP280;15569;42.652;23.040;2023-11-19T01:36:17;92926.91;;;4.69
28305;BMP280;15569;42.652;23.040;2023-11-19T01:38:42;92918.09;;;4.59
28305;BMP280;15569;42.652;23.040;2023-11-19T01:41:08;92924.63;;;4.66
28305;BMP280;15569;42.652;23.040;2023-11-19T01:43:38;92919.66;;;4.53
28305;BMP280;15569;42.652;23.040;2023-11-19T01:46:05;92931.63;;;4.15
28305;BMP280;15569;42.652;23.040;2023-11-19T01:48:33;92937.19;;;4.18
28305;BMP280;15569;42.652;23.040;2023-11-19T01:51:00;92935.59;;;4.41
28305;BMP280;15569;42.652;23.040;2023-11-19T01:53:27;92939.78;;;4.61
28305;BMP280;15569;42.652;23.040;2023-11-19T01:55:53;92934.84;;;4.67
28305;BMP280;15569;42.652;23.040;2023-11-19T01:58:19;92929.25;;;4.46
28305;BMP280;15569;42.652;23.040;2023-11-19T02:00:44;92929.06;;;4.71
28305;BMP280;15569;42.652;23.040;2023-11-19T02:03:10;92916.03;;;4.96
28305;BMP280;15569;42.652;23.040;2023-11-19T02:05:37;92910.66;;;5.06
28305;BMP280;15569;42.652;23.040;2023-11-19T02:08:02;92915.22;;;5.13
28305;BMP280;15569;42.652;23.040;2023-11-19T02:10:28;92906.09;;;4.80
28305;BMP280;15569;42.652;23.040;2023-11-19T02:12:53;92915.94;;;5.04
28305;BMP280;15569;42.652;23.040;2023-11-19T02:15:20;92910.38;;;5.02
28305;BMP280;15569;42.652;23.040;2023-11-19T02:17:47;92912.22;;;4.99
28305;BMP280;15569;42.652;23.040;2023-11-19T02:20:12;92919.00;;;4.91
28305;BMP280;15569;42.652;23.040;2023-11-19T02:22:40;92923.38;;;4.76
28305;BMP280;15569;42.652;23.040;2023-11-19T02:25:14;92927.69;;;4.89
28305;BMP280;15569;42.652;23.040;2023-11-19T02:30:12;92915.44;;;4.78
28305;BMP280;15569;42.652;23.040;2023-11-19T02:32:41;92908.97;;;5.01
28305;BMP280;15569;42.652;23.040;2023-11-19T02:35:07;92915.47;;;5.17
28305;BMP280;15569;42.652;23.040;2023-11-19T02:37:34;92904.72;;;4.98
28305;BMP280;15569;42.652;23.040;2023-11-19T02:39:59;92913.50;;;4.89
28305;BMP280;15569;42.652;23.040;2023-11-19T02:42:28;92919.84;;;4.93
28305;BMP280;15569;42.652;23.040;2023-11-19T02:44:53;92912.22;;;5.09
28305;BMP280;15569;42.652;23.040;2023-11-19T02:47:19;92916.03;;;4.87
28305;BMP280;15569;42.652;23.040;2023-11-19T02:49:46;92921.00;;;5.00
28305;BMP280;15569;42.652;23.040;2023-11-19T02:52:13;92923.56;;;5.07
28305;BMP280;15569;42.652;23.040;2023-11-19T02:54:39;92918.63;;;5.23
28305;BMP280;15569;42.652;23.040;2023-11-19T02:57:06;92914.88;;;4.90
28305;BMP280;15569;42.652;23.040;2023-11-19T02:59:35;92904.50;;;4.67
28305;BMP280;15569;42.652;23.040;2023-11-19T03:02:05;92917.44;;;4.88
28305;BMP280;15569;42.652;23.040;2023-11-19T03:04:33;92911.56;;;4.72
28305;BMP280;15569;42.652;23.040;2023-11-19T03:06:58;92910.19;;;4.71
28305;BMP280;15569;42.652;23.040;2023-11-19T03:09:23;92912.75;;;4.78
28305;BMP280;15569;42.652;23.040;2023-11-19T03:11:50;92914.97;;;4.63
28305;BMP280;15569;42.652;23.040;2023-11-19T03:14:15;92921.66;;;4.71
28305;BMP280;15569;42.652;23.040;2023-11-19T03:16:40;92920.22;;;4.61
28305;BMP280;15569;42.652;23.040;2023-11-19T03:19:06;92924.88;;;4.60
28305;BMP280;15569;42.652;23.040;2023-11-19T03:21:31;92926.75;;;4.67
28305;BMP280;15569;42.652;23.040;2023-11-19T03:23:57;92923.06;;;4.72
28305;BMP280;15569;42.652;23.040;2023-11-19T03:26:26;92913.19;;;4.85
28305;BMP280;15569;42.652;23.040;2023-11-19T03:28:52;92921.94;;;4.75
28305;BMP280;15569;42.652;23.040;2023-11-19T03:31:18;92915.84;;;4.65
28305;BMP280;15569;42.652;23.040;2023-11-19T03:33:44;92940.94;;;4.68
28305;BMP280;15569;42.652;23.040;2023-11-19T03:36:10;92944.84;;;4.57
28305;BMP280;15569;42.652;23.040;2023-11-19T03:38:35;92956.81;;;4.37
28305;BMP280;15569;42.652;23.040;2023-11-19T03:41:09;92948.31;;;4.67
28305;BMP280;15569;42.652;23.040;2023-11-19T03:43:35;92948.22;;;4.94
28305;BMP280;15569;42.652;23.040;2023-11-19T03:46:00;92956.28;;;4.85
28305;BMP280;15569;42.652;23.040;2023-11-19T03:48:25;92966.78;;;4.44
28305;BMP280;15569;42.652;23.040;2023-11-19T03:50:51;92972.47;;;4.22
28305;BMP280;15569;42.652;23.040;2023-11-19T03:53:16;92976.28;;;4.55
28305;BMP280;15569;42.652;23.040;2023-11-19T03:55:41;92974.59;;;4.23
28305;BMP280;15569;42.652;23.040;2023-11-19T03:58:07;92969.88;;;4.41
28305;BMP280;15569;42.652;23.040;2023-11-19T04:00:32;92973.50;;;4.26
28305;BMP280;15569;42.652;23.040;2023-11-19T04:02:58;92970.69;;;4.07
28305;BMP280;15569;42.652;23.040;2023-11-19T04:05:23;92973.53;;;4.36
28305;BMP280;15569;42.652;23.040;2023-11-19T04:07:48;92965.41;;;4.26
28305;BMP280;15569;42.652;23.040;2023-11-19T04:10:14;92969.97;;;4.33
28305;BMP280;15569;42.652;23.040;2023-11-19T04:12:41;92968.72;;;4.70
28305;BMP280;15569;42.652;23.040;2023-11-19T04:15:08;92970.13;;;4.71
28305;BMP280;15569;42.652;23.040;2023-11-19T04:17:34;92978.59;;;4.58
28305;BMP280;15569;42.652;23.040;2023-11-19T04:22:28;92972.09;;;4.35
28305;BMP280;15569;42.652;23.040;2023-11-19T04:24:53;92977.22;;;4.40
28305;BMP280;15569;42.652;23.040;2023-11-19T04:27:18;92988.28;;;4.71
28305;BMP280;15569;42.652;23.040;2023-11-19T04:29:44;92988.72;;;4.41
28305;BMP280;15569;42.652;23.040;2023-11-19T04:32:11;92989.16;;;4.47
28305;BMP280;15569;42.652;23.040;2023-11-19T04:34:36;92990.69;;;4.40
28305;BMP280;15569;42.652;23.040;2023-11-19T04:37:02;92991.41;;;4.77
28305;BMP280;15569;42.652;23.040;2023-11-19T04:39:29;92997.75;;;4.62
28305;BMP280;15569;42.652;23.040;2023-11-19T04:41:55;92986.03;;;4.87
28305;BMP280;15569;42.652;23.040;2023-11-19T04:44:21;92979.25;;;4.86
28305;BMP280;15569;42.652;23.040;2023-11-19T04:46:46;92983.63;;;4.91
28305;BMP280;15569;42.652;23.040;2023-11-19T04:49:12;92985.22;;;4.57
28305;BMP280;15569;42.652;23.040;2023-11-19T04:51:42;92986.16;;;4.79
28305;BMP280;15569;42.652;23.040;2023-11-19T04:54:09;92985.59;;;4.90
28305;BMP280;15569;42.652;23.040;2023-11-19T04:56:35;92992.91;;;4.61
28305;BMP280;15569;42.652;23.040;2023-11-19T04:59:02;92998.19;;;4.68
28305;BMP280;15569;42.652;23.040;2023-11-19T05:01:27;93001.06;;;4.44
28305;BMP280;15569;42.652;23.040;2023-11-19T05:03:53;93010.78;;;4.39
28305;BMP280;15569;42.652;23.040;2023-11-19T05:06:18;93008.38;;;4.34
28305;BMP280;15569;42.652;23.040;2023-11-19T05:08:44;93022.25;;;4.13
28305;BMP280;15569;42.652;23.040;2023-11-19T05:11:09;93018.28;;;3.87
28305;BMP280;15569;42.652;23.040;2023-11-19T05:13:37;93023.25;;;3.57
28305;BMP280;15569;42.652;23.040;2023-11-19T05:16:03;93011.41;;;3.60
28305;BMP280;15569;42.652;23.040;2023-11-19T05:18:28;93017.38;;;3.50
28305;BMP280;15569;42.652;23.040;2023-11-19T05:20:54;93020.88;;;3.43
28305;BMP280;15569;42.652;23.040;2023-11-19T05:23:19;93018.25;;;3.36
28305;BMP280;15569;42.652;23.040;2023-11-19T05:25:45;93010.72;;;3.17
28305;BMP280;15569;42.652;23.040;2023-11-19T05:28:11;93014.78;;;3.60
28305;BMP280;15569;42.652;23.040;2023-11-19T05:30:36;93003.81;;;3.66
28305;BMP280;15569;42.652;23.040;2023-11-19T05:33:01;93025.47;;;3.68
28305;BMP280;15569;42.652;23.040;2023-11-19T05:35:27;93021.59;;;3.61
28305;BMP280;15569;42.652;23.040;2023-11-19T05:37:52;93023.56;;;3.43
28305;BMP280;15569;42.652;23.040;2023-11-19T05:40:18;93030.50;;;3.46
28305;BMP280;15569;42.652;23.040;2023-11-19T05:42:45;93031.22;;;3.47
28305;BMP280;15569;42.652;23.040;2023-11-19T05:45:11;93045.66;;;3.34
28305;BMP280;15569;42.652;23.040;2023-11-19T05:47:37;93043.78;;;3.44
28305;BMP280;15569;42.652;23.040;2023-11-19T05:50:03;93044.25;;;3.33
28305;BMP280;15569;42.652;23.040;2023-11-19T05:52:31;93043.38;;;3.31
28305;BMP280;15569;42.652;23.040;2023-11-19T05:55:00;93045.00;;;3.09
28305;BMP280;15569;42.652;23.040;2023-11-19T05:57:27;93046.31;;;3.01
28305;BMP280;15569;42.652;23.040;2023-11-19T05:59:54;93059.22;;;2.95
28305;BMP280;15569;42.652;23.040;2023-11-19T06:02:19;93072.19;;;2.88
28305;BMP280;15569;42.652;23.040;2023-11-19T06:04:45;93072.88;;;3.14
28305;BMP280;15569;42.652;23.040;2023-11-19T06:07:13;93069.75;;;3.00
28305;BMP280;15569;42.652;23.040;2023-11-19T06:09:38;93071.81;;;2.84
28305;BMP280;15569;42.652;23.040;2023-11-19T06:12:05;93067.19;;;2.85
28305;BMP280;15569;42.652;23.040;2023-11-19T06:14:32;93063.84;;;2.77
28305;BMP280;15569;42.652;23.040;2023-11-19T06:16:58;93066.34;;;3.00
28305;BMP280;15569;42.652;23.040;2023-11-19T06:19:23;93072.63;;;2.70
28305;BMP280;15569;42.652;23.040;2023-11-19T06:21:50;93070.66;;;2.38
28305;BMP280;15569;42.652;23.040;2023-11-19T06:24:15;93071.31;;;2.54
28305;BMP280;15569;42.652;23.040;2023-11-19T06:26:40;93068.78;;;2.56
28305;BMP280;15569;42.652;23.040;2023-11-19T06:29:06;93082.47;;;2.67
28305;BMP280;15569;42.652;23.040;2023-11-19T06:31:31;93075.88;;;2.68
28305;BMP280;15569;42.652;23.040;2023-11-19T06:33:57;93091.41;;;2.70
28305;BMP280;15569;42.652;23.040;2023-11-19T06:36:22;93078.84;;;2.48
28305;BMP280;15569;42.652;23.040;2023-11-19T06:38:47;93092.34;;;2.65
28305;BMP280;15569;42.652;23.040;2023-11-19T06:41:13;93084.03;;;2.78
28305;BMP280;15569;42.652;23.040;2023-11-19T06:43:38;93085.94;;;3.17
28305;BMP280;15569;42.652;23.040;2023-11-19T06:46:04;93091.63;;;3.21
28305;BMP280;15569;42.652;23.040;2023-11-19T06:48:34;93092.56;;;2.92
28305;BMP280;15569;42.652;23.040;2023-11-19T06:51:00;93077.41;;;2.79
28305;BMP280;15569;42.652;23.040;2023-11-19T06:53:25;93090.47;;;2.75
28305;BMP280;15569;42.652;23.040;2023-11-19T06:55:53;93085.09;;;2.82
28305;BMP280;15569;42.652;23.040;2023-11-19T06:58:19;93092.41;;;2.89
28305;BMP280;15569;42.652;23.040;2023-11-19T07:00:44;93083.47;;;3.12
28305;BMP280;15569;42.652;23.040;2023-11-19T07:03:11;93077.88;;;2.92
28305;BMP280;15569;42.652;23.040;2023-11-19T07:05:36;93089.28;;;3.25
28305;BMP280;15569;42.652;23.040;2023-11-19T07:08:06;93090.28;;;3.55
28305;BMP280;15569;42.652;23.040;2023-11-19T07:10:32;93086.13;;;3.78
28305;BMP280;15569;42.652;23.040;2023-11-19T07:12:59;93084.84;;;3.62
28305;BMP280;15569;42.652;23.040;2023-11-19T07:15:24;93083.31;;;3.51
28305;BMP280;15569;42.652;23.040;2023-11-19T07:17:49;93081.75;;;3.83
28305;BMP280;15569;42.652;23.040;2023-11-19T07:20:15;93071.47;;;3.55
28305;BMP280;15569;42.652;23.040;2023-11-19T07:22:44;93094.06;;;3.51
28305;BMP280;15569;42.652;23.040;2023-11-19T07:25:13;93084.09;;;3.44
28305;BMP280;15569;42.652;23.040;2023-11-19T07:27:38;93100.25;;;3.62
28305;BMP280;15569;42.652;23.040;2023-11-19T07:30:05;93105.94;;;3.66
28305;BMP280;15569;42.652;23.040;2023-11-19T07:32:32;93098.06;;;4.02
28305;BMP280;15569;42.652;23.040;2023-11-19T07:34:58;93101.38;;;3.93
28305;BMP280;15569;42.652;23.040;2023-11-19T07:37:24;93096.47;;;3.82
28305;BMP280;15569;42.652;23.040;2023-11-19T07:39:49;93089.22;;;3.92
28305;BMP280;15569;42.652;23.040;2023-11-19T07:42:14;93091.81;;;3.40
28305;BMP280;15569;42.652;23.040;2023-11-19T07:44:40;93092.09;;;3.52
28305;BMP280;15569;42.652;23.040;2023-11-19T07:47:06;93099.47;;;3.69
28305;BMP280;15569;42.652;23.040;2023-11-19T07:49:32;93090.50;;;3.91
28305;BMP280;15569;42.652;23.040;2023-11-19T07:51:58;93102.38;;;3.97
28305;BMP280;15569;42.652;23.040;2023-11-19T07:54:23;93112.06;;;4.18
28305;BMP280;15569;42.652;23.040;2023-11-19T07:56:49;93103.59;;;4.04
28305;BMP280;15569;42.652;23.040;2023-11-19T07:59:15;93092.50;;;4.17
28305;BMP280;15569;42.652;23.040;2023-11-19T08:01:41;93096.25;;;4.48
28305;BMP280;15569;42.652;23.040;2023-11-19T08:04:06;93098.56;;;4.52
28305;BMP280;15569;42.652;23.040;2023-11-19T08:06:31;93116.13;;;4.53
28305;BMP280;15569;42.652;23.040;2023-11-19T08:08:57;93116.41;;;4.13
28305;BMP280;15569;42.652;23.040;2023-11-19T08:11:23;93108.66;;;4.34
28305;BMP280;15569;42.652;23.040;2023-11-19T08:13:49;93114.81;;;4.27
28305;BMP280;15569;42.652;23.040;2023-11-19T08:16:14;93119.13;;;4.40
28305;BMP280;15569;42.652;23.040;2023-11-19T08:18:42;93117.44;;;4.61
28305;BMP280;15569;42.652;23.040;2023-11-19T08:21:08;93110.22;;;4.20
28305;BMP280;15569;42.652;23.040;2023-11-19T08:23:33;93111.19;;;4.59
28305;BMP280;15569;42.652;23.040;2023-11-19T08:25:59;93107.03;;;4.48
28305;BMP280;15569;42.652;23.040;2023-11-19T08:28:25;93110.81;;;4.72
28305;BMP280;15569;42.652;23.040;2023-11-19T08:30:50;93117.59;;;4.90
28305;BMP280;15569;42.652;23.040;2023-11-19T08:33:16;93121.00;;;4.91
28305;BMP280;15569;42.652;23.040;2023-11-19T08:35:42;93137.44;;;4.41
28305;BMP280;15569;42.652;23.040;2023-11-19T08:38:07;93140.13;;;4.41
28305;BMP280;15569;42.652;23.040;2023-11-19T08:40:32;93140.84;;;4.42
28305;BMP280;15569;42.652;23.040;2023-11-19T08:42:58;93146.63;;;4.21
28305;BMP280;15569;42.652;23.040;2023-11-19T08:45:25;93134.59;;;4.05
28305;BMP280;15569;42.652;23.040;2023-11-19T08:47:50;93143.16;;;4.11
28305;BMP280;15569;42.652;23.040;2023-11-19T08:50:16;93150.66;;;4.12
28305;BMP280;15569;42.652;23.040;2023-11-19T08:52:41;93145.84;;;4.11
28305;BMP280;15569;42.652;23.040;2023-11-19T08:55:07;93138.06;;;3.81
28305;BMP280;15569;42.652;23.040;2023-11-19T08:57:32;93141.41;;;3.89
28305;BMP280;15569;42.652;23.040;2023-11-19T08:59:58;93146.84;;;3.81
28305;BMP280;15569;42.652;23.040;2023-11-19T09:02:24;93151.50;;;4.15
28305;BMP280;15569;42.652;23.040;2023-11-19T09:04:49;93163.56;;;4.48
28305;BMP280;15569;42.652;23.040;2023-11-19T09:07:14;93163.94;;;4.62
28305;BMP280;15569;42.652;23.040;2023-11-19T09:09:40;93153.56;;;4.58
28305;BMP280;15569;42.652;23.040;2023-11-19T09:12:06;93151.19;;;4.62
28305;BMP280;15569;42.652;23.040;2023-11-19T09:14:31;93153.84;;;4.80
28305;BMP280;15569;42.652;23.040;2023-11-19T09:16:57;93153.03;;;4.87
28305;BMP280;15569;42.652;23.040;2023-11-19T09:19:23;93137.75;;;4.99
28305;BMP280;15569;42.652;23.040;2023-11-19T09:21:49;93143.25;;;5.18
28305;BMP280;15569;42.652;23.040;2023-11-19T09:24:15;93158.22;;;5.38
28305;BMP280;15569;42.652;23.040;2023-11-19T09:26:40;93151.56;;;5.39
28305;BMP280;15569;42.652;23.040;2023-11-19T09:29:07;93147.59;;;5.40
28305;BMP280;15569;42.652;23.040;2023-11-19T09:31:33;93132.25;;;5.33
28305;BMP280;15569;42.652;23.040;2023-11-19T09:33:58;93133.25;;;5.37
28305;BMP280;15569;42.652;23.040;2023-11-19T09:36:24;93119.69;;;5.64
28305;BMP280;15569;42.652;23.040;2023-11-19T09:38:49;93110.88;;;5.73
28305;BMP280;15569;42.652;23.040;2023-11-19T09:41:15;93098.78;;;5.55
28305;BMP280;15569;42.652;23.040;2023-11-19T09:43:41;93095.72;;;5.68
28305;BMP280;15569;42.652;23.040;2023-11-19T09:46:09;93084.59;;;5.45
28305;BMP280;15569;42.652;23.040;2023-11-19T09:48:37;93088.56;;;5.44
28305;BMP280;15569;42.652;23.040;2023-11-19T09:51:04;93087.56;;;5.39
28305;BMP280;15569;42.652;23.040;2023-11-19T09:53:30;93087.25;;;5.26
28305;BMP280;15569;42.652;23.040;2023-11-19T09:55:59;93091.44;;;5.46
28305;BMP280;15569;42.652;23.040;2023-11-19T09:58:25;93077.50;;;5.40
28305;BMP280;15569;42.652;23.040;2023-11-19T10:00:51;93073.56;;;5.60
28305;BMP280;15569;42.652;23.040;2023-11-19T10:03:17;93065.06;;;5.54
28305;BMP280;15569;42.652;23.040;2023-11-19T10:05:43;93068.59;;;5.85
28305;BMP280;15569;42.652;23.040;2023-11-19T10:08:08;93061.78;;;6.03
28305;BMP280;15569;42.652;23.040;2023-11-19T10:10:36;93077.53;;;5.59
28305;BMP280;15569;42.652;23.040;2023-11-19T10:13:01;93083.00;;;5.32
28305;BMP280;15569;42.652;23.040;2023-11-19T10:15:27;93071.50;;;5.22
28305;BMP280;15569;42.652;23.040;2023-11-19T10:17:56;93074.94;;;5.42
28305;BMP280;15569;42.652;23.040;2023-11-19T10:20:22;93078.53;;;5.64
28305;BMP280;15569;42.652;23.040;2023-11-19T10:22:47;93066.00;;;5.30
28305;BMP280;15569;42.652;23.040;2023-11-19T10:25:23;93065.25;;;5.20
28305;BMP280;15569;42.652;23.040;2023-11-19T10:27:53;93078.66;;;5.37
28305;BMP280;15569;42.652;23.040;2023-11-19T10:30:23;93058.78;;;5.61
28305;BMP280;15569;42.652;23.040;2023-11-19T10:33:08;93069.59;;;5.99
28305;BMP280;15569;42.652;23.040;2023-11-19T10:35:51;93065.91;;;5.95
28305;BMP280;15569;42.652;23.040;2023-11-19T10:38:22;93059.66;;;6.02
28305;BMP280;15569;42.652;23.040;2023-11-19T10:40:48;93051.56;;;6.02
28305;BMP280;15569;42.652;23.040;2023-11-19T10:43:14;93058.78;;;6.19
28305;BMP280;15569;42.652;23.040;2023-11-19T10:45:40;93061.59;;;6.30
28305;BMP280;15569;42.652;23.040;2023-11-19T10:48:06;93076.84;;;6.26
28305;BMP280;15569;42.652;23.040;2023-11-19T10:50:36;93066.03;;;6.06
28305;BMP280;15569;42.652;23.040;2023-11-19T10:53:02;93066.38;;;7.01
28305;BMP280;15569;42.652;23.040;2023-11-19T10:55:37;93064.00;;;8.34
28305;BMP280;15569;42.652;23.040;2023-11-19T10:58:07;93052.38;;;8.89
28305;BMP280;15569;42.652;23.040;2023-11-19T11:01:02;93044.16;;;8.75
28305;BMP280;15569;42.652;23.040;2023-11-19T11:03:35;93023.53;;;8.94
28305;BMP280;15569;42.652;23.040;2023-11-19T11:06:03;93025.44;;;9.28
28305;BMP280;15569;42.652;23.040;2023-11-19T11:08:30;93021.06;;;9.96
28305;BMP280;15569;42.652;23.040;2023-11-19T11:10:55;93021.91;;;9.99
28305;BMP280;15569;42.652;23.040;2023-11-19T11:13:25;93014.84;;;9.94
28305;BMP280;15569;42.652;23.040;2023-11-19T11:15:53;93013.94;;;10.28
28305;BMP280;15569;42.652;23.040;2023-11-19T11:18:21;93013.03;;;10.76
28305;BMP280;15569;42.652;23.040;2023-11-19T11:20:49;93008.84;;;11.29
28305;BMP280;15569;42.652;23.040;2023-11-19T11:23:39;93012.06;;;11.68
28305;BMP280;15569;42.652;23.040;2023-11-19T11:26:25;93008.22;;;12.34
28305;BMP280;15569;42.652;23.040;2023-11-19T11:34:12;92999.63;;;13.55
28305;BMP280;15569;42.652;23.040;2023-11-19T11:37:01;93004.06;;;14.18
28305;BMP280;15569;42.652;23.040;2023-11-19T11:39:31;92990.00;;;15.04
28305;BMP280;15569;42.652;23.040;2023-11-19T11:50:15;92983.56;;;16.32
28305;BMP280;15569;42.652;23.040;2023-11-19T11:55:28;92991.50;;;17.56
28305;BMP280;15569;42.652;23.040;2023-11-19T11:57:57;92983.63;;;17.12
28305;BMP280;15569;42.652;23.040;2023-11-19T12:03:02;92987.84;;;16.13
28305;BMP280;15569;42.652;23.040;2023-11-19T12:05:28;92978.44;;;16.20
28305;BMP280;15569;42.652;23.040;2023-11-19T12:08:00;92967.13;;;17.40
28305;BMP280;15569;42.652;23.040;2023-11-19T12:10:30;92975.59;;;18.49
28305;BMP280;15569;42.652;23.040;2023-11-19T12:12:59;92972.00;;;18.80
28305;BMP280;15569;42.652;23.040;2023-11-19T12:15:25;92978.03;;;19.10
28305;BMP280;15569;42.652;23.040;2023-11-19T12:17:53;92977.94;;;19.48
28305;BMP280;15569;42.652;23.040;2023-11-19T12:20:21;92957.03;;;19.81
28305;BMP280;15569;42.652;23.040;2023-11-19T12:22:48;92965.34;;;18.93
28305;BMP280;15569;42.652;23.040;2023-11-19T12:25:15;92963.94;;;19.84
28305;BMP280;15569;42.652;23.040;2023-11-19T12:27:51;92966.00;;;18.52
28305;BMP280;15569;42.652;23.040;2023-11-19T12:30:23;92952.75;;;18.43
28305;BMP280;15569;42.652;23.040;2023-11-19T12:32:50;92953.06;;;18.61
28305;BMP280;15569;42.652;23.040;2023-11-19T12:35:15;92954.16;;;18.83
28305;BMP280;15569;42.652;23.040;2023-11-19T12:37:48;92950.91;;;17.86
28305;BMP280;15569;42.652;23.040;2023-11-19T12:42:44;92952.75;;;18.07
28305;BMP280;15569;42.652;23.040;2023-11-19T12:45:09;92944.44;;;17.40
28305;BMP280;15569;42.652;23.040;2023-11-19T12:47:36;92942.31;;;18.01
28305;BMP280;15569;42.652;23.040;2023-11-19T12:50:02;92944.13;;;19.02
28305;BMP280;15569;42.652;23.040;2023-11-19T12:52:29;92921.84;;;19.30
28305;BMP280;15569;42.652;23.040;2023-11-19T12:54:55;92922.19;;;20.09
28305;BMP280;15569;42.652;23.040;2023-11-19T12:57:20;92929.25;;;20.98
28305;BMP280;15569;42.652;23.040;2023-11-19T12:59:55;92932.00;;;22.26
28305;BMP280;15569;42.652;23.040;2023-11-19T13:02:44;92948.03;;;22.96
28305;BMP280;15569;42.652;23.040;2023-11-19T13:07:47;92945.13;;;23.76
28305;BMP280;15569;42.652;23.040;2023-11-19T13:10:13;92942.16;;;24.18
28305;BMP280;15569;42.652;23.040;2023-11-19T13:12:38;92929.34;;;24.70
28305;BMP280;15569;42.652;23.040;2023-11-19T13:15:04;92929.53;;;24.44
28305;BMP280;15569;42.652;23.040;2023-11-19T13:17:30;92921.56;;;25.59
28305;BMP280;15569;42.652;23.040;2023-11-19T13:19:55;92917.53;;;26.53
28305;BMP280;15569;42.652;23.040;2023-11-19T13:22:22;92917.13;;;26.77
28305;BMP280;15569;42.652;23.040;2023-11-19T13:24:47;92915.28;;;27.43
28305;BMP280;15569;42.652;23.040;2023-11-19T13:27:13;92906.78;;;27.84
28305;BMP280;15569;42.652;23.040;2023-11-19T13:29:39;92922.75;;;26.75
28305;BMP280;15569;42.652;23.040;2023-11-19T13:32:04;92928.63;;;26.09
28305;BMP280;15569;42.652;23.040;2023-11-19T13:34:30;92934.88;;;24.76
28305;BMP280;15569;42.652;23.040;2023-11-19T13:36:56;92940.66;;;24.44
28305;BMP280;15569;42.652;23.040;2023-11-19T13:39:21;92933.91;;;24.08
28305;BMP280;15569;42.652;23.040;2023-11-19T13:41:49;92947.63;;;24.41
28305;BMP280;15569;42.652;23.040;2023-11-19T13:44:16;92946.25;;;24.38
28305;BMP280;15569;42.652;23.040;2023-11-19T13:46:41;92943.38;;;24.56
28305;BMP280;15569;42.652;23.040;2023-11-19T13:49:06;92944.50;;;24.89
28305;BMP280;15569;42.652;23.040;2023-11-19T13:51:32;92951.75;;;25.32
28305;BMP280;15569;42.652;23.040;2023-11-19T13:53:58;92947.94;;;23.62
28305;BMP280;15569;42.652;23.040;2023-11-19T13:56:23;92946.63;;;22.97
28305;BMP280;15569;42.652;23.040;2023-11-19T13:58:49;92954.97;;;22.93
28305;BMP280;15569;42.652;23.040;2023-11-19T14:01:14;92958.94;;;20.94
28305;BMP280;15569;42.652;23.040;2023-11-19T14:03:39;92959.34;;;20.02
28305;BMP280;15569;42.652;23.040;2023-11-19T14:06:05;92976.25;;;18.87
28305;BMP280;15569;42.652;23.040;2023-11-19T14:08:33;92969.97;;;18.45
28305;BMP280;15569;42.652;23.040;2023-11-19T14:10:58;92966.28;;;17.06
28305;BMP280;15569;42.652;23.040;2023-11-19T14:13:24;92962.97;;;16.56
28305;BMP280;15569;42.652;23.040;2023-11-19T14:15:49;92977.59;;;16.65
28305;BMP280;15569;42.652;23.040;2023-11-19T14:18:15;92975.91;;;17.35
28305;BMP280;15569;42.652;23.040;2023-11-19T14:20:40;92975.44;;;16.87
28305;BMP280;15569;42.652;23.040;2023-11-19T14:23:06;92974.59;;;15.37
28305;BMP280;15569;42.652;23.040;2023-11-19T14:25:31;92977.00;;;14.64
28305;BMP280;15569;42.652;23.040;2023-11-19T14:27:56;92968.19;;;14.87
28305;BMP280;15569;42.652;23.040;2023-11-19T14:30:22;92972.75;;;15.21
28305;BMP280;15569;42.652;23.040;2023-11-19T14:32:47;92965.03;;;14.75